Time;durP1;ratioP1;P1;durP2;ratioP2;P2;SDS_P1;SDS_P2;PMS_P1;PMS_P2;Temp;Humidity;BMP_temperature;BMP_pressure;BME280_temperature;BME280_humidity;BME280_pressure;Samples;Min_cycle;Max_cycle;Signal;HPM_P1;HPM_P2
2022/12/01 00:00:58;;;;;;;39.55;23.15;;;6.40;72.40;;;;;;5073086;28;20071;-15
2022/12/01 00:03:25;;;;;;;38.78;22.83;;;6.40;72.60;;;;;;5073845;28;20029;-15
2022/12/01 00:06:05;;;;;;;41.05;22.67;;;6.40;72.60;;;;;;5072337;28;20098;-14
2022/12/01 00:08:33;;;;;;;30.58;18.65;;;6.40;72.70;;;;;;5073527;28;20078;-14
2022/12/01 00:11:07;;;;;;;33.53;19.77;;;6.40;72.60;;;;;;5072621;28;20025;-14
2022/12/01 00:13:34;;;;;;;39.83;21.17;;;6.40;72.60;;;;;;5073040;28;20028;-16
2022/12/01 00:16:14;;;;;;;40.92;22.02;;;6.40;72.90;;;;;;5073376;28;20017;-15
2022/12/01 00:18:40;;;;;;;38.17;21.80;;;6.40;72.70;;;;;;5073099;28;20029;-15
2022/12/01 00:21:13;;;;;;;44.22;21.88;;;6.40;73.70;;;;;;5072784;28;20031;-15
2022/12/01 00:23:42;;;;;;;38.10;21.77;;;6.40;73.10;;;;;;5073726;28;20035;-15
2022/12/01 00:26:08;;;;;;;46.22;24.08;;;6.40;73.00;;;;;;5071660;28;20062;-15
2022/12/01 00:28:34;;;;;;;49.97;26.48;;;6.40;73.30;;;;;;5072807;28;20065;-15
2022/12/01 00:31:00;;;;;;;37.25;22.23;;;6.40;73.00;;;;;;5072947;28;20033;-15
2022/12/01 00:33:26;;;;;;;41.03;22.73;;;6.30;72.90;;;;;;5072777;28;20369;-16
2022/12/01 00:35:59;;;;;;;38.20;21.33;;;6.30;73.00;;;;;;5072717;28;20032;-15
2022/12/01 00:38:26;;;;;;;41.23;22.43;;;6.40;73.10;;;;;;5073062;28;20058;-15
2022/12/01 00:40:52;;;;;;;36.55;21.48;;;6.40;73.50;;;;;;5072599;28;20024;-14
2022/12/01 00:43:18;;;;;;;41.45;22.27;;;6.40;73.70;;;;;;5072408;28;20048;-14
2022/12/01 00:45:44;;;;;;;28.23;17.30;;;6.40;73.50;;;;;;5071157;28;20086;-14
2022/12/01 00:48:10;;;;;;;41.30;22.73;;;6.40;73.40;;;;;;5072701;28;20085;-15
2022/12/01 00:50:36;;;;;;;43.50;23.92;;;6.40;73.70;;;;;;5072621;28;20028;-15
2022/12/01 00:53:02;;;;;;;41.58;23.25;;;6.40;73.40;;;;;;5072463;28;20025;-14
2022/12/01 00:55:28;;;;;;;36.55;20.25;;;6.40;73.70;;;;;;5072488;28;20028;-14
2022/12/01 00:57:54;;;;;;;41.65;24.83;;;6.40;73.20;;;;;;5072449;28;20017;-15
2022/12/01 01:00:20;;;;;;;44.97;25.95;;;6.40;73.90;;;;;;5072499;28;20434;-14
2022/12/01 01:02:46;;;;;;;36.25;21.25;;;6.40;73.70;;;;;;5072584;28;20025;-14
2022/12/01 01:05:12;;;;;;;33.38;19.40;;;6.40;73.70;;;;;;5072454;28;20036;-14
2022/12/01 01:07:38;;;;;;;35.50;19.77;;;6.30;73.40;;;;;;5072446;28;20021;-14
2022/12/01 01:10:05;;;;;;;35.95;21.80;;;6.40;73.70;;;;;;5072221;28;20028;-15
2022/12/01 01:12:31;;;;;;;40.08;23.33;;;6.40;74.00;;;;;;5072604;28;20047;-14
2022/12/01 01:14:56;;;;;;;45.85;26.08;;;6.40;74.20;;;;;;5072198;28;20473;-15
2022/12/01 01:17:22;;;;;;;42.80;23.05;;;6.40;74.00;;;;;;5073886;28;20031;-14
2022/12/01 01:19:48;;;;;;;40.30;24.27;;;6.40;73.90;;;;;;5075510;28;20025;-15
2022/12/01 01:22:15;;;;;;;35.25;20.08;;;6.30;73.90;;;;;;5076287;28;20028;-15
2022/12/01 01:24:41;;;;;;;43.55;25.23;;;6.30;74.20;;;;;;5074811;28;20040;-15
2022/12/01 01:27:07;;;;;;;34.63;19.75;;;6.30;74.30;;;;;;5076395;28;20025;-14
2022/12/01 01:29:32;;;;;;;44.53;24.55;;;6.30;74.20;;;;;;5076132;28;20476;-14
2022/12/01 01:31:58;;;;;;;39.03;22.20;;;6.30;74.50;;;;;;5076371;28;20032;-15
2022/12/01 01:34:24;;;;;;;39.08;22.25;;;6.20;74.30;;;;;;5074741;28;20522;-15
2022/12/01 01:36:50;;;;;;;40.30;22.25;;;6.20;74.30;;;;;;5075821;28;20620;-14
2022/12/01 01:39:16;;;;;;;33.30;18.15;;;6.20;74.30;;;;;;5075861;28;20110;-15
2022/12/01 01:41:42;;;;;;;37.45;20.80;;;6.30;74.50;;;;;;5076454;28;20039;-15
2022/12/01 01:44:46;;;;;;;42.92;24.02;;;6.30;74.30;;;;;;5075579;28;20091;-15
2022/12/01 01:47:13;;;;;;;36.05;19.55;;;6.30;74.50;;;;;;5075783;28;20048;-14
2022/12/01 01:49:41;;;;;;;38.75;23.90;;;6.30;74.30;;;;;;5076009;28;20027;-15
2022/12/01 01:52:07;;;;;;;39.05;23.33;;;6.30;74.30;;;;;;5076399;28;20028;-14
2022/12/01 01:54:41;;;;;;;42.78;24.08;;;6.30;74.10;;;;;;5075704;28;20035;-15
2022/12/01 01:57:09;;;;;;;39.22;23.95;;;6.30;74.20;;;;;;5076194;28;20086;-14
2022/12/01 01:59:49;;;;;;;40.47;22.38;;;6.40;74.20;;;;;;5075738;28;20048;-14
2022/12/01 02:02:15;;;;;;;39.13;22.83;;;6.40;74.10;;;;;;5075950;28;20025;-14
2022/12/01 02:04:54;;;;;;;39.35;23.65;;;6.40;74.20;;;;;;5075420;28;20043;-14
2022/12/01 02:07:20;;;;;;;31.50;20.45;;;6.30;74.20;;;;;;5075525;28;20060;-15
2022/12/01 02:09:46;;;;;;;36.03;20.00;;;6.30;74.20;;;;;;5075672;28;20109;-15
2022/12/01 02:12:52;;;;;;;32.33;19.75;;;6.30;74.40;;;;;;5075955;28;20460;-14
2022/12/01 02:15:36;;;;;;;34.28;19.65;;;6.20;74.60;;;;;;5075408;28;20523;-15
2022/12/01 02:18:10;;;;;;;;;;;6.20;74.50;;;;;;5076071;28;20024;-14
2022/12/01 02:21:24;;;;;;;31.15;16.45;;;6.20;74.80;;;;;;5075336;28;19911;-16
2022/12/01 02:23:59;;;;;;;26.70;14.97;;;6.20;74.50;;;;;;5075438;28;20099;-15
2022/12/01 02:26:43;;;;;;;25.20;15.50;;;6.30;74.50;;;;;;5075092;28;20757;-16
2022/12/01 02:29:51;;;;;;;26.60;14.23;;;6.30;74.70;;;;;;5074146;28;20101;-15
2022/12/01 02:32:20;;;;;;;28.58;15.63;;;6.30;74.30;;;;;;5075283;28;20031;-14
2022/12/01 02:34:58;;;;;;;29.15;15.15;;;6.30;74.40;;;;;;5075574;28;20029;-15
2022/12/01 02:37:40;;;;;;;28.50;16.83;;;6.30;74.20;;;;;;5073943;28;20025;-15
2022/12/01 02:40:31;;;;;;;27.10;15.23;;;6.30;73.90;;;;;;5075145;28;20381;-15
2022/12/01 02:43:07;;;;;;;27.75;15.73;;;6.30;74.70;;;;;;5075026;28;20032;-15
2022/12/01 02:46:17;;;;;;;28.92;16.77;;;6.30;74.40;;;;;;5074721;28;20043;-14
2022/12/01 02:48:47;;;;;;;24.08;13.23;;;6.30;74.00;;;;;;5066679;28;20392;-14
2022/12/01 02:51:27;;;;;;;22.48;12.63;;;6.20;74.20;;;;;;5074709;28;20054;-15
2022/12/01 02:53:58;;;;;;;22.50;12.77;;;6.20;74.10;;;;;;5074983;28;20023;-15
2022/12/01 02:56:25;;;;;;;19.48;10.88;;;6.20;74.10;;;;;;5074611;28;20040;-15
2022/12/01 02:58:50;;;;;;;20.13;11.90;;;6.20;74.00;;;;;;5073048;28;20056;-15
2022/12/01 03:01:41;;;;;;;21.67;12.73;;;6.30;74.00;;;;;;5074823;28;20185;-15
2022/12/01 03:04:37;;;;;;;23.90;13.00;;;6.30;74.30;;;;;;5074487;28;20032;-14
2022/12/01 03:07:16;;;;;;;24.40;13.90;;;6.30;74.00;;;;;;5074327;28;20032;-16
2022/12/01 03:10:11;;;;;;;22.90;12.82;;;6.30;74.20;;;;;;5074519;28;20021;-15
2022/12/01 03:12:42;;;;;;;24.83;13.55;;;6.30;74.20;;;;;;5074989;28;20032;-14
2022/12/01 03:15:15;;;;;;;21.85;12.45;;;6.20;74.60;;;;;;5074019;28;20028;-15
2022/12/01 03:17:51;;;;;;;22.30;12.70;;;6.20;74.10;;;;;;5074772;28;20412;-16
2022/12/01 03:20:43;;;;;;;19.58;11.20;;;6.20;74.70;;;;;;5074220;28;20103;-14
2022/12/01 03:23:17;;;;;;;20.77;11.48;;;6.20;74.10;;;;;;5073970;28;20111;-15
2022/12/01 03:25:47;;;;;;;21.63;12.30;;;6.20;74.00;;;;;;5074141;28;20029;-14
2022/12/01 03:28:17;;;;;;;20.90;11.90;;;6.20;73.90;;;;;;5073910;28;20361;-14
2022/12/01 03:30:45;;;;;;;24.55;13.05;;;6.20;73.80;;;;;;5074392;28;20024;-14
2022/12/01 03:33:20;;;;;;;22.40;13.02;;;6.20;73.70;;;;;;5073689;28;20032;-15
2022/12/01 03:35:56;;;;;;;24.65;13.52;;;6.20;73.70;;;;;;5073937;28;20032;-15
2022/12/01 03:38:26;;;;;;;21.73;12.27;;;6.10;73.60;;;;;;5073783;28;20025;-14
2022/12/01 03:41:03;;;;;;;20.05;11.52;;;6.10;73.60;;;;;;5073748;28;20128;-14
2022/12/01 03:43:37;;;;;;;20.40;11.18;;;6.00;73.70;;;;;;5073510;28;20109;-14
2022/12/01 03:46:10;;;;;;;25.15;13.85;;;5.90;73.80;;;;;;5073845;28;20063;-14
2022/12/01 03:48:38;;;;;;;26.52;14.43;;;5.90;73.70;;;;;;5073613;28;20595;-15
2022/12/01 03:51:22;;;;;;;25.33;13.98;;;5.80;73.80;;;;;;5073306;28;20029;-14
2022/12/01 03:54:01;;;;;;;23.52;13.82;;;5.70;74.00;;;;;;5073493;28;20444;-13
2022/12/01 03:56:35;;;;;;;25.35;14.73;;;5.70;74.10;;;;;;5073479;28;20028;-15
2022/12/01 03:59:05;;;;;;;27.30;15.18;;;5.60;74.30;;;;;;5073395;28;20111;-15
2022/12/01 04:01:32;;;;;;;25.77;14.77;;;5.50;74.30;;;;;;5073339;28;20051;-15
2022/12/01 04:04:08;;;;;;;26.48;14.98;;;5.50;74.30;;;;;;5073286;28;20035;-14
2022/12/01 04:06:34;;;;;;;25.42;14.15;;;5.40;74.30;;;;;;5071907;28;20108;-16
2022/12/01 04:09:01;;;;;;;24.45;14.18;;;5.40;74.50;;;;;;5072893;28;20036;-15
2022/12/01 04:14:11;;;;;;;24.95;14.18;;;5.40;74.60;;;;;;5073616;28;20046;-15
2022/12/01 04:16:37;;;;;;;28.40;14.13;;;5.30;74.40;;;;;;5071755;28;20024;-15
2022/12/01 04:19:03;;;;;;;21.10;12.30;;;5.30;74.60;;;;;;5073270;28;20105;-15
2022/12/01 04:21:29;;;;;;;26.02;13.60;;;5.30;74.50;;;;;;5073236;28;20116;-15
2022/12/01 04:24:01;;;;;;;21.35;11.18;;;5.30;74.40;;;;;;5073453;28;20036;-16
2022/12/01 04:26:29;;;;;;;20.75;11.35;;;5.20;74.40;;;;;;5072893;28;20515;-13
2022/12/01 04:28:55;;;;;;;17.80;10.63;;;5.20;74.40;;;;;;5071596;28;20032;-15
2022/12/01 04:31:21;;;;;;;21.30;10.90;;;5.20;74.50;;;;;;5072844;28;20028;-15
2022/12/01 04:33:47;;;;;;;20.63;11.35;;;5.10;74.60;;;;;;5072796;28;20495;-13
2022/12/01 04:36:13;;;;;;;17.33;9.25;;;5.10;74.50;;;;;;5072824;28;20017;-15
2022/12/01 04:38:39;;;;;;;18.38;10.13;;;5.10;74.50;;;;;;5073056;28;20025;-14
2022/12/01 04:41:12;;;;;;;18.48;10.18;;;5.10;74.50;;;;;;5072355;28;20342;-15
2022/12/01 04:43:39;;;;;;;20.58;11.48;;;5.10;74.50;;;;;;5073018;28;20594;-14
2022/12/01 04:46:06;;;;;;;23.50;12.30;;;5.00;74.50;;;;;;5072616;28;20137;-15
2022/12/01 04:48:36;;;;;;;19.05;10.55;;;4.90;74.50;;;;;;5073395;28;20122;-14
2022/12/01 04:51:07;;;;;;;19.48;10.52;;;4.80;74.60;;;;;;5072415;28;20037;-14
2022/12/01 04:53:34;;;;;;;22.63;12.20;;;4.70;74.70;;;;;;5072211;28;20048;-15
2022/12/01 04:56:01;;;;;;;20.13;11.18;;;4.60;74.90;;;;;;5072527;28;20043;-15
2022/12/01 04:58:32;;;;;;;19.83;11.07;;;4.50;75.00;;;;;;5072535;28;20024;-15
2022/12/01 05:01:06;;;;;;;21.13;12.02;;;4.50;75.00;;;;;;5072627;28;20028;-14
2022/12/01 05:03:37;;;;;;;21.73;12.27;;;4.40;75.10;;;;;;5073059;28;20048;-15
2022/12/01 05:06:09;;;;;;;17.50;9.52;;;4.30;75.30;;;;;;5072763;28;20032;-14
2022/12/01 05:08:35;;;;;;;18.02;10.60;;;4.30;75.30;;;;;;5072526;28;20522;-15
2022/12/01 05:11:01;;;;;;;20.35;12.13;;;4.20;75.40;;;;;;5072297;28;20033;-15
2022/12/01 05:13:28;;;;;;;24.33;13.10;;;4.10;75.60;;;;;;5071067;28;20119;-14
2022/12/01 05:16:02;;;;;;;21.13;11.98;;;4.10;76.00;;;;;;5072706;28;20024;-15
2022/12/01 05:18:28;;;;;;;22.00;11.82;;;4.00;75.60;;;;;;5071516;28;20025;-15
2022/12/01 05:20:57;;;;;;;24.67;11.95;;;3.90;75.80;;;;;;5072672;28;20506;-15
2022/12/01 05:23:29;;;;;;;19.20;10.18;;;3.80;75.80;;;;;;5072562;28;20387;-15
2022/12/01 05:25:55;;;;;;;21.45;11.55;;;3.80;76.00;;;;;;5072270;28;20036;-14
2022/12/01 05:28:24;;;;;;;21.50;11.45;;;3.70;76.30;;;;;;5072295;28;20123;-14
2022/12/01 05:30:50;;;;;;;22.70;10.98;;;3.70;76.20;;;;;;5072116;28;20017;-14
2022/12/01 05:33:17;;;;;;;17.52;9.40;;;3.60;76.40;;;;;;5072254;28;20029;-14
2022/12/01 05:35:43;;;;;;;16.25;9.18;;;3.60;76.20;;;;;;5072541;28;20512;-15
2022/12/01 05:38:09;;;;;;;19.73;10.27;;;3.50;76.40;;;;;;5072568;28;20028;-15
2022/12/01 05:40:36;;;;;;;22.98;11.90;;;3.50;76.50;;;;;;5072124;28;20392;-14
2022/12/01 05:43:03;;;;;;;22.58;12.25;;;3.50;76.50;;;;;;5071880;28;20033;-15
2022/12/01 05:45:29;;;;;;;25.48;12.32;;;3.40;76.70;;;;;;5071965;28;20523;-14
2022/12/01 05:47:56;;;;;;;19.63;10.30;;;3.40;76.60;;;;;;5072336;28;20025;-15
2022/12/01 05:50:23;;;;;;;17.88;10.10;;;3.30;77.00;;;;;;5072343;28;20036;-14
2022/12/01 05:52:50;;;;;;;18.55;9.55;;;3.30;76.70;;;;;;5071790;28;20033;-15
2022/12/01 05:55:16;;;;;;;20.00;10.27;;;3.20;76.80;;;;;;5072597;28;20032;-15
2022/12/01 05:57:43;;;;;;;21.90;11.02;;;3.20;77.00;;;;;;5071957;28;20047;-14
2022/12/01 06:00:10;;;;;;;25.52;11.90;;;3.20;76.90;;;;;;5071984;28;20036;-15
2022/12/01 06:02:36;;;;;;;21.42;11.07;;;3.10;76.90;;;;;;5072269;28;20028;-16
2022/12/01 06:05:02;;;;;;;23.85;12.60;;;3.20;76.90;;;;;;5074085;28;20044;-15
2022/12/01 06:07:28;;;;;;;24.55;12.63;;;3.30;76.80;;;;;;5075799;28;20112;-14
2022/12/01 06:09:54;;;;;;;19.88;10.70;;;3.20;76.90;;;;;;5075698;28;20111;-15
2022/12/01 06:12:20;;;;;;;25.30;12.73;;;3.20;76.90;;;;;;5074544;28;20028;-15
2022/12/01 06:14:46;;;;;;;25.15;12.70;;;3.30;77.20;;;;;;5075972;28;20056;-15
2022/12/01 06:17:12;;;;;;;24.65;13.27;;;3.30;76.80;;;;;;5075095;28;20074;-15
2022/12/01 06:19:38;;;;;;;23.80;13.18;;;3.30;77.00;;;;;;5075365;28;20032;-15
2022/12/01 06:22:04;;;;;;;24.95;12.80;;;3.30;77.90;;;;;;5075588;28;20107;-14
2022/12/01 06:24:30;;;;;;;38.08;15.38;;;3.30;77.80;;;;;;5075155;28;20429;-14
2022/12/01 06:26:56;;;;;;;24.40;12.80;;;3.40;77.10;;;;;;5075039;28;20059;-14
2022/12/01 06:29:22;;;;;;;21.20;9.82;;;3.40;77.10;;;;;;5075136;28;20036;-14
2022/12/01 06:31:48;;;;;;;21.88;10.80;;;3.50;77.00;;;;;;5075122;28;20061;-15
2022/12/01 06:34:14;;;;;;;23.50;12.15;;;3.60;76.90;;;;;;5073706;28;20031;-15
2022/12/01 06:36:40;;;;;;;26.73;12.82;;;3.60;76.90;;;;;;5075121;28;20066;-14
2022/12/01 06:39:10;;;;;;;26.40;13.13;;;3.60;76.70;;;;;;5075054;28;20033;-15
2022/12/01 06:41:37;;;;;;;25.48;12.23;;;3.60;76.70;;;;;;5075504;28;20520;-14
2022/12/01 06:44:04;;;;;;;23.05;11.45;;;3.70;76.60;;;;;;5074803;28;20066;-15
2022/12/01 06:46:30;;;;;;;21.25;11.13;;;3.80;76.70;;;;;;5075314;28;20067;-15
2022/12/01 06:48:56;;;;;;;18.10;10.02;;;3.90;76.70;;;;;;5074967;28;20021;-15
2022/12/01 06:51:22;;;;;;;23.65;11.23;;;3.90;76.90;;;;;;5074854;28;20451;-15
2022/12/01 06:53:53;;;;;;;23.13;12.52;;;4.00;76.30;;;;;;5074654;28;20032;-15
2022/12/01 06:56:20;;;;;;;28.38;12.65;;;4.10;76.60;;;;;;5075165;28;20371;-14
2022/12/01 06:58:48;;;;;;;24.35;12.93;;;4.10;76.40;;;;;;5074201;28;20071;-14
2022/12/01 07:01:14;;;;;;;25.35;12.50;;;4.20;76.90;;;;;;5074895;28;20029;-14
2022/12/01 07:03:41;;;;;;;23.65;12.82;;;4.20;76.70;;;;;;5074774;28;20082;-14
2022/12/01 07:06:08;;;;;;;20.52;11.30;;;4.30;77.00;;;;;;5074717;28;20048;-15
2022/12/01 07:08:34;;;;;;;21.02;10.73;;;4.40;76.30;;;;;;5074371;28;20035;-14
2022/12/01 07:11:04;;;;;;;21.67;11.15;;;4.40;76.30;;;;;;5072980;28;20068;-15
2022/12/01 07:13:30;;;;;;;27.58;14.02;;;4.50;76.20;;;;;;5074619;28;20441;-14
2022/12/01 07:15:57;;;;;;;23.92;13.10;;;4.60;76.10;;;;;;5073965;28;20404;-15
2022/12/01 07:18:23;;;;;;;23.92;12.02;;;4.80;77.20;;;;;;5074245;28;20031;-14
2022/12/01 07:20:49;;;;;;;25.90;13.38;;;4.90;76.60;;;;;;5074061;28;20024;-14
2022/12/01 07:23:15;;;;;;;22.10;11.05;;;5.10;76.10;;;;;;5074631;28;20078;-14
2022/12/01 07:25:41;;;;;;;25.95;14.52;;;5.30;76.00;;;;;;5074223;28;20028;-14
2022/12/01 07:28:07;;;;;;;18.83;10.77;;;5.50;77.00;;;;;;5074326;28;20105;-16
2022/12/01 07:30:33;;;;;;;21.05;10.30;;;5.60;76.40;;;;;;5074040;28;20046;-15
2022/12/01 07:32:59;;;;;;;19.40;10.15;;;5.80;76.10;;;;;;5074612;28;20396;-15
2022/12/01 07:35:26;;;;;;;21.17;11.88;;;5.90;75.20;;;;;;5073918;28;20158;-16
2022/12/01 07:37:55;;;;;;;18.77;10.15;;;6.10;75.60;;;;;;5074135;28;20103;-15
2022/12/01 07:40:21;;;;;;;16.77;10.02;;;6.20;74.60;;;;;;5074051;28;20169;-15
2022/12/01 07:42:47;;;;;;;16.90;10.07;;;6.30;74.90;;;;;;5073849;28;20033;-15
2022/12/01 07:45:13;;;;;;;19.15;11.23;;;6.40;76.00;;;;;;5073433;28;20443;-14
2022/12/01 07:47:40;;;;;;;19.38;11.65;;;6.60;75.70;;;;;;5073566;28;20021;-15
2022/12/01 07:50:07;;;;;;;23.52;12.57;;;6.70;75.70;;;;;;5073535;28;20073;-15
2022/12/01 07:52:33;;;;;;;19.20;11.00;;;6.80;75.20;;;;;;5073807;28;20467;-15
2022/12/01 07:54:59;;;;;;;19.85;11.00;;;7.00;75.10;;;;;;5073138;28;20056;-15
2022/12/01 07:57:25;;;;;;;19.50;10.30;;;7.10;74.80;;;;;;5073830;28;20023;-16
2022/12/01 07:59:51;;;;;;;21.50;10.48;;;7.20;74.80;;;;;;5073261;28;20024;-15
2022/12/01 08:02:17;;;;;;;19.38;11.10;;;7.40;74.30;;;;;;5072734;28;20021;-14
2022/12/01 08:04:44;;;;;;;17.38;9.80;;;7.40;74.10;;;;;;5072051;28;20025;-14
2022/12/01 08:07:09;;;;;;;20.23;11.20;;;7.60;73.50;;;;;;5073118;28;20028;-14
2022/12/01 08:09:36;;;;;;;18.63;10.35;;;7.70;73.50;;;;;;5073352;28;20039;-15
2022/12/01 08:12:02;;;;;;;16.63;10.00;;;7.90;73.20;;;;;;5071757;28;20028;-15
2022/12/01 08:14:28;;;;;;;18.58;9.57;;;8.00;72.70;;;;;;5073127;28;20025;-15
2022/12/01 08:16:53;;;;;;;17.77;11.02;;;8.10;72.60;;;;;;5072804;28;20040;-15
2022/12/01 08:19:19;;;;;;;18.70;10.10;;;8.30;73.60;;;;;;5071719;28;20036;-15
2022/12/01 08:21:45;;;;;;;18.17;10.30;;;8.40;72.20;;;;;;5072950;28;20039;-14
2022/12/01 08:24:11;;;;;;;17.50;10.38;;;8.60;71.60;;;;;;5072946;28;20040;-14
2022/12/01 08:26:37;;;;;;;19.10;10.00;;;8.80;70.80;;;;;;5072032;28;20032;-14
2022/12/01 08:29:03;;;;;;;21.30;12.40;;;8.90;70.50;;;;;;5071556;28;20025;-14
2022/12/01 08:31:32;;;;;;;18.50;11.18;;;9.20;69.80;;;;;;5073243;28;20025;-15
2022/12/01 08:33:58;;;;;;;19.25;9.98;;;9.40;69.80;;;;;;5073106;28;20085;-14
2022/12/01 08:36:24;;;;;;;16.23;9.43;;;9.60;69.40;;;;;;5072898;28;20086;-14
2022/12/01 08:38:53;;;;;;;17.38;9.27;;;9.80;68.80;;;;;;5072691;28;20027;-14
2022/12/01 08:41:20;;;;;;;16.98;9.70;;;9.90;66.40;;;;;;5072838;28;20043;-14
2022/12/01 08:43:46;;;;;;;15.40;8.88;;;10.00;67.80;;;;;;5072675;28;20045;-13
2022/12/01 08:46:13;;;;;;;14.63;8.98;;;10.20;66.20;;;;;;5072961;28;20085;-14
2022/12/01 08:48:40;;;;;;;14.32;9.13;;;10.30;67.10;;;;;;5072710;28;20120;-14
2022/12/01 08:51:15;;;;;;;16.25;9.20;;;10.40;66.20;;;;;;5072403;28;20056;-14
2022/12/01 08:53:44;;;;;;;14.30;8.77;;;10.40;66.50;;;;;;5071512;28;20074;-13
2022/12/01 08:56:12;;;;;;;13.20;8.63;;;10.50;66.60;;;;;;5072580;28;20040;-14
2022/12/01 08:58:38;;;;;;;13.98;8.05;;;10.70;66.40;;;;;;5072797;28;20039;-14
2022/12/01 09:01:06;;;;;;;15.20;9.10;;;10.80;66.60;;;;;;5072549;28;20033;-14
2022/12/01 09:03:34;;;;;;;14.80;9.50;;;11.00;66.40;;;;;;5073513;28;20024;-12
2022/12/01 09:06:10;;;;;;;12.52;7.65;;;11.10;65.50;;;;;;5072495;28;20021;-14
2022/12/01 09:08:36;;;;;;;14.93;7.20;;;11.20;65.70;;;;;;5072416;28;20031;-13
2022/12/01 09:11:10;;;;;;;10.68;6.90;;;11.30;65.30;;;;;;5072395;28;20128;-13
2022/12/01 09:13:38;;;;;;;14.63;8.10;;;11.30;63.60;;;;;;5072759;28;20027;-13
2022/12/01 09:16:13;;;;;;;14.38;8.57;;;11.40;63.70;;;;;;5072352;28;20119;-13
2022/12/01 09:18:40;;;;;;;13.88;7.40;;;11.60;64.60;;;;;;5072430;28;20031;-14
2022/12/01 09:21:21;;;;;;;15.23;9.52;;;11.70;62.30;;;;;;5072234;28;20027;-14
2022/12/01 09:23:48;;;;;;;16.35;9.82;;;11.90;63.20;;;;;;5072351;28;20033;-14
2022/12/01 09:26:17;;;;;;;16.63;9.50;;;11.90;60.30;;;;;;5070773;28;20032;-14
2022/12/01 09:28:49;;;;;;;12.07;7.55;;;11.90;61.20;;;;;;5072190;28;20507;-14
2022/12/01 09:31:17;;;;;;;12.98;7.15;;;11.80;61.80;;;;;;5072523;28;20028;-14
2022/12/01 09:33:43;;;;;;;14.45;8.35;;;11.90;61.40;;;;;;5072726;28;20021;-13
2022/12/01 09:36:10;;;;;;;11.38;6.47;;;12.00;61.50;;;;;;5070921;28;20081;-13
2022/12/01 09:38:37;;;;;;;11.40;7.22;;;12.10;59.00;;;;;;5074109;28;20111;-13
2022/12/01 09:41:14;;;;;;;12.15;6.65;;;12.20;60.20;;;;;;5075864;28;20024;-13
2022/12/01 09:43:50;;;;;;;8.80;5.82;;;12.20;60.10;;;;;;5075847;28;20032;-13
2022/12/01 09:46:21;;;;;;;6.05;3.72;;;12.40;60.20;;;;;;5076006;28;20051;-14
2022/12/01 09:48:50;;;;;;;6.70;3.95;;;12.60;59.20;;;;;;5075048;28;20054;-14
2022/12/01 09:51:24;;;;;;;8.30;5.40;;;12.90;59.10;;;;;;5076120;28;20451;-15
2022/12/01 09:53:57;;;;;;;8.85;5.20;;;13.10;58.50;;;;;;5076287;28;20035;-14
2022/12/01 09:56:27;;;;;;;11.40;6.20;;;13.20;57.50;;;;;;5075873;28;20455;-13
2022/12/01 09:59:00;;;;;;;8.85;4.65;;;13.00;55.40;;;;;;5075742;28;20020;-14
2022/12/01 10:01:37;;;;;;;16.67;11.32;;;12.90;56.70;;;;;;5075626;28;20387;-15
2022/12/01 10:04:25;;;;;;;6.65;4.30;;;12.90;57.50;;;;;;5076244;28;20082;-13
2022/12/01 10:07:00;;;;;;;6.25;4.30;;;12.90;57.60;;;;;;5075665;28;20086;-13
2022/12/01 10:09:51;;;;;;;9.35;5.90;;;12.80;58.00;;;;;;5075594;28;20597;-13
2022/12/01 10:12:21;;;;;;;8.60;5.38;;;12.80;56.50;;;;;;5075520;28;20024;-13
2022/12/01 10:14:48;;;;;;;6.65;4.30;;;12.70;58.20;;;;;;5075739;28;20031;-15
2022/12/01 10:17:35;;;;;;;8.52;5.00;;;12.90;57.90;;;;;;5075926;28;20039;-14
2022/12/01 10:20:27;;;;;;;10.70;5.30;;;13.20;58.30;;;;;;5075950;28;20020;-13
2022/12/01 10:23:08;;;;;;;9.38;5.28;;;13.60;57.30;;;;;;5075075;28;20036;-13
2022/12/01 10:25:58;;;;;;;8.60;4.55;;;13.80;55.90;;;;;;5075064;28;20068;-14
2022/12/01 10:28:45;;;;;;;14.50;8.70;;;14.00;56.30;;;;;;5075152;28;20028;-14
2022/12/01 10:31:37;;;;;;;7.40;4.60;;;14.30;56.40;;;;;;5075256;28;20024;-14
2022/12/01 10:34:10;;;;;;;6.75;4.18;;;14.40;54.80;;;;;;5075415;28;20032;-14
2022/12/01 10:36:36;;;;;;;8.18;4.20;;;14.40;54.70;;;;;;5075100;28;20029;-15
2022/12/01 10:39:05;;;;;;;6.85;4.68;;;14.60;55.30;;;;;;5075123;28;20028;-13
2022/12/01 10:41:35;;;;;;;7.63;4.18;;;14.80;54.80;;;;;;5074879;28;20025;-14
2022/12/01 10:44:04;;;;;;;7.25;4.15;;;14.90;53.50;;;;;;5074731;28;20040;-14
2022/12/01 10:46:51;;;;;;;6.03;4.03;;;15.20;50.50;;;;;;5075207;28;20476;-14
2022/12/01 10:49:18;;;;;;;6.63;3.90;;;15.20;50.50;;;;;;5074646;28;20530;-14
2022/12/01 10:51:56;;;;;;;6.38;4.28;;;15.00;49.30;;;;;;5074400;28;20032;-15
2022/12/01 10:54:31;;;;;;;7.72;4.13;;;14.90;49.60;;;;;;5073446;28;20035;-14
2022/12/01 10:56:58;;;;;;;6.68;4.18;;;14.80;48.90;;;;;;5074385;28;20395;-14
2022/12/01 10:59:48;;;;;;;5.90;3.92;;;14.80;49.70;;;;;;5074562;28;20116;-14
2022/12/01 11:02:21;;;;;;;6.97;4.22;;;15.00;50.90;;;;;;5074591;28;20025;-14
2022/12/01 11:04:54;;;;;;;7.03;4.30;;;15.20;49.80;;;;;;5074566;28;20472;-14
2022/12/01 11:07:32;;;;;;;8.25;4.57;;;15.10;47.70;;;;;;5074553;28;20040;-14
2022/12/01 11:10:18;;;;;;;8.30;3.40;;;15.20;47.80;;;;;;5074414;28;20025;-14
2022/12/01 11:13:00;;;;;;;5.97;3.88;;;15.10;47.40;;;;;;5073303;28;20031;-14
2022/12/01 11:15:30;;;;;;;10.02;4.28;;;15.10;47.90;;;;;;5074703;28;20074;-15
2022/12/01 11:18:18;;;;;;;5.72;3.35;;;15.20;48.30;;;;;;5074837;28;20017;-14
2022/12/01 11:20:44;;;;;;;5.00;3.25;;;15.30;49.40;;;;;;5073807;28;20053;-15
2022/12/01 11:23:19;;;;;;;7.93;3.92;;;15.30;49.60;;;;;;5074220;28;20447;-14
2022/12/01 11:25:57;;;;;;;6.22;3.95;;;15.20;47.70;;;;;;5073873;28;20124;-14
2022/12/01 11:28:24;;;;;;;8.05;4.38;;;15.10;48.20;;;;;;5074001;28;20033;-15
2022/12/01 11:31:02;;;;;;;6.25;4.18;;;15.00;49.60;;;;;;5074330;28;20032;-13
2022/12/01 11:33:31;;;;;;;8.18;4.10;;;15.00;47.50;;;;;;5074011;28;20052;-13
2022/12/01 11:35:57;;;;;;;4.35;2.58;;;15.00;49.80;;;;;;5073955;28;20446;-13
2022/12/01 11:38:31;;;;;;;3.92;2.45;;;15.10;48.40;;;;;;5074092;28;20384;-13
2022/12/01 11:40:57;;;;;;;;;;;15.00;47.60;;;;;;5073985;28;20066;-13
2022/12/01 11:43:36;;;;;;;3.83;2.42;;;14.90;45.00;;;;;;5074055;28;19962;-15
2022/12/01 11:46:06;;;;;;;4.05;2.40;;;14.80;46.30;;;;;;5073683;28;20083;-13
2022/12/01 11:48:35;;;;;;;4.28;2.28;;;14.60;45.90;;;;;;5073762;28;20033;-13
2022/12/01 11:51:12;;;;;;;4.90;2.70;;;14.50;47.90;;;;;;5073700;28;20524;-15
2022/12/01 11:53:41;;;;;;;4.50;2.70;;;14.50;48.00;;;;;;5073884;28;20032;-14
2022/12/01 11:56:27;;;;;;;3.65;2.53;;;14.50;48.10;;;;;;5073408;28;20059;-14
2022/12/01 11:59:08;;;;;;;3.65;2.22;;;14.50;48.60;;;;;;5073593;28;20034;-14
2022/12/01 12:02:13;;;;;;;3.70;2.53;;;14.50;48.30;;;;;;5072576;28;20028;-14
2022/12/01 12:04:56;;;;;;;3.53;2.45;;;14.40;47.30;;;;;;5073380;28;20032;-14
2022/12/01 12:07:41;;;;;;;5.25;3.00;;;14.30;47.30;;;;;;5073575;28;20127;-13
2022/12/01 12:10:19;;;;;;;4.50;2.78;;;14.40;48.20;;;;;;5073146;28;20115;-12
2022/12/01 12:13:09;;;;;;;5.22;2.92;;;14.40;48.20;;;;;;5072888;28;20028;-12
2022/12/01 12:15:46;;;;;;;4.40;2.88;;;14.30;47.20;;;;;;5073000;28;20082;-12
2022/12/01 12:18:44;;;;;;;5.18;3.17;;;14.30;48.20;;;;;;5073350;28;20032;-14
2022/12/01 12:21:16;;;;;;;5.18;2.80;;;14.30;48.20;;;;;;5030850;28;20029;-16
2022/12/01 12:24:15;;;;;;;5.85;3.25;;;14.20;48.60;;;;;;5031404;28;20124;-14
2022/12/01 12:26:55;;;;;;;5.32;2.80;;;14.10;47.50;;;;;;5030842;28;20045;-15
2022/12/01 12:29:37;;;;;;;10.50;5.40;;;14.20;49.00;;;;;;5030924;28;20029;-15
2022/12/01 12:32:35;;;;;;;4.63;2.90;;;14.20;48.40;;;;;;5031035;28;20516;-15
2022/12/01 12:35:45;;;;;;;6.15;3.22;;;14.20;48.10;;;;;;5027068;28;20041;-14
2022/12/01 12:38:34;;;;;;;5.40;3.38;;;14.20;48.60;;;;;;4991559;28;20043;-15
2022/12/01 12:41:22;;;;;;;4.30;2.80;;;14.00;49.50;;;;;;4988391;28;20026;-14
2022/12/01 12:43:53;;;;;;;4.50;2.47;;;13.80;50.20;;;;;;5023319;28;20564;-14
2022/12/01 12:46:32;;;;;;;3.50;2.58;;;13.80;50.70;;;;;;5030741;28;20072;-14
2022/12/01 12:49:24;;;;;;;5.50;3.03;;;13.90;51.20;;;;;;5030752;28;20029;-16
2022/12/01 12:52:09;;;;;;;5.35;3.33;;;14.00;51.40;;;;;;5030808;28;20128;-15
2022/12/01 12:54:54;;;;;;;6.35;3.45;;;13.90;50.20;;;;;;5030751;28;20108;-14
2022/12/01 12:57:25;;;;;;;8.32;5.47;;;13.90;50.80;;;;;;5036751;28;20028;-15
2022/12/01 13:00:12;;;;;;;8.10;4.18;;;13.90;51.00;;;;;;5072705;28;20062;-15
2022/12/01 13:03:04;;;;;;;7.68;4.45;;;13.90;51.20;;;;;;5072736;28;20025;-16
2022/12/01 13:05:35;;;;;;;4.97;3.30;;;13.80;51.60;;;;;;5072552;28;20032;-15
2022/12/01 13:08:10;;;;;;;6.28;3.88;;;13.70;51.40;;;;;;5072511;28;20040;-14